Data van 05-10-2022 00:03 is mede mogelijk gemaakt door Luchtvaartmeteo.nl en Jumprun.nl

Civil
ZCZC
SA042125 EHFS VLISSINGEN AWS NLD 8 m.
METAR EHFS 042125Z AUTO 21018KT 9999 OVC031/// 16/12 Q1017=

ZCZC
SA042155 EHAM AMSTERDAM/SCHIPHOL NLD -3 m.
METAR EHAM 042155Z 20014KT 9999 BKN035 16/12 Q1016 NOSIG=

ZCZC
SA042155 EHBK MAASTRICHT/MAASTRICHT-AACHEN NLD 114 m.
METAR EHBK 042155Z AUTO 20009KT 170V230 9999 NSC 12/10 Q1019=

ZCZC
SA042155 EHGG GRONINGEN/EELDE NLD 5 m.
METAR EHGG 042155Z AUTO 20009KT 170V240 9999 OVC039 15/11 Q1016=

ZCZC
SA042155 EHLE LELYSTAD/LELYSTAD NLD -3 m.
METAR EHLE 042155Z AUTO 21010KT 180V240 9999 OVC033 16/13 Q1017=

ZCZC
SA042155 EHRD ROTTERDAM/THE HAGUE AIRPORT NLD -5 m.
METAR EHRD 042155Z AUTO 21013KT 160V250 9999 OVC031 16/12 Q1017
NOSIG=


Military
ZCZC
SA042155 EHDL ARNHEM/DEELEN NLD 48 m.
METAR EHDL 042155Z AUTO 21007KT 150V270 9999 SCT026 OVC031 15/11
Q1018 BLU=

ZCZC
SA042155 EHGR GILZE-RIJEN/GILZE-RIJEN NLD 14 m.
METAR EHGR 042155Z AUTO 21006KT 180V260 9999 FEW028 OVC032 15/12
Q1018 BLU=

ZCZC
SA042155 EHLW LEEUWARDEN/LEEUWARDEN NLD 1 m.
METAR EHLW 042155Z AUTO 20009KT 160V230 9999 SCT018 BKN022 OVC028
16/13 Q1015 WHT=

ZCZC
SA042155 EHVK VOLKEL/VOLKEL NLD 21 m.
METAR EHVK 042155Z AUTO 21007KT 170V230 9999 OVC034 15/11 Q1018 BLU=

ZCZC
SA042155 EHVL VLIELAND NLD 10 m.
METAR EHVL 042155Z AUTO 22019KT 9999 FEW038 BKN045 OVC180 16/15 Q1014
BLU=

ZCZC
SA042155 EHWO WOENSDRECHT/WOENSDRECHT NLD 19 m.
METAR EHWO 042155Z AUTO 23008KT 190V260 9999 OVC027 16/13 Q1018 BLU=

ZCZC
SA042155 EHEH EINDHOVEN/EINDHOVEN NLD 22 m.
METAR EHEH 042155Z AUTO 19005KT 9999 OVC031 15/11 Q1018 BLU=

ZCZC
SA042155 EHKD DE KOOY/DE KOOY NLD 1 m.
METAR EHKD 042155Z AUTO 21013KT 190V250 9999 FEW016 OVC150 16/14
Q1015 BLU=


Offshore
ZCZC
SA042125 EHAK A12-CPP NLD 48 m.
METAR EHAK 042125Z AUTO 22028KT 9999 FEW009/// SCT010/// BKN013///
16/15 Q1009=

ZCZC
SA042125 EHDV D15-FA-1 NLD 42 m.
METAR EHDV 042125Z AUTO 24024KT 190V280 9999 FEW010/// SCT041///
16/// Q1010 REDZ=

ZCZC
SA042125 EHFD F3-FB-1 NLD 50 m.
METAR EHFD 042125Z AUTO 22029KT 9999 FEW020/// SCT025/// 16/14 Q1010=

ZCZC
SA042125 EHHW BUITENGAATS/BG-OHVS2 42 m.
METAR EHHW 042125Z AUTO 21023KT 9999 FEW008/// SCT010/// BKN044///
16/14 Q1014=

ZCZC
SA042125 EHJA J6-A NLD 45 m.
METAR EHJA 042125Z AUTO 21024KT 9999 FEW044/// 17/13 Q1011=

ZCZC
SA042125 EHJR K13-A NLD 37 m.
METAR EHJR 042125Z AUTO 22027KT //// // ///////// 17/14 Q1013 RE//
W17/H22=

ZCZC
SA042125 EHKV K14-FA-1C NLD 41 m.
METAR EHKV 042125Z AUTO 24031KT 9999 FEW012 SCT046 17/14 Q1014=

ZCZC
SA042125 EHMA AWG-1 NLD 40 m.
METAR EHMA 042125Z NIL=

ZCZC
SA042125 EHMG L9-FF-1 NLD 44 m.
METAR EHMG 042125Z AUTO 22028KT 9999 FEW013 OVC040 17/14 Q1015=

ZCZC
SA042125 EHPG P11-B NLD 41 m.
METAR EHPG 042125Z AUTO 23028KT 9999 FEW015 18/13 Q1014=

ZCZC
SA042125 EHQE HOORN-A NLD 50 m.
METAR EHQE 042125Z AUTO /////KT 9999 FEW014 17/14 Q1014=

ZCZC
SA042125 EHSA EURO PLATFORM NLD 19 m.
METAR EHSA 042125Z AUTO 20024KT 9999 ///////// 17/14 Q1016 W18/H16=

ZCZC
SA042125 EHSC LICHTEILAND GOEREE NLD 22 m.
METAR EHSC 042125Z AUTO 22026KT 9999 ///////// 17/13 Q1017 W17/H15=

ZCZC
SA042125 EHSG BSA NLD 43 m.
METAR EHSG 042125Z AUTO 18021KT 9999 SCT016/// OVC026/// 17/13 Q1016=